Time;durP1;ratioP1;P1;durP2;ratioP2;P2;SDS_P1;SDS_P2;PMS_P1;PMS_P2;Temp;Humidity;BMP_temperature;BMP_pressure;BME280_temperature;BME280_humidity;BME280_pressure;Samples;Min_cycle;Max_cycle;Signal;HPM_P1;HPM_P2
2023/03/08 00:00:17;;;;;;;10.48;5.80;;;;;;;0.71;100.00;98492.44;6193395;23;20000;-95
2023/03/08 00:02:46;;;;;;;12.90;5.93;;;;;;;0.62;100.00;98472.56;6193742;23;20016;-95
2023/03/08 00:05:11;;;;;;;8.68;5.45;;;;;;;0.84;100.00;98508.69;6192502;23;20008;-94
2023/03/08 00:07:37;;;;;;;8.77;5.78;;;;;;;0.66;100.00;98494.38;6192849;23;20039;-95
2023/03/08 00:10:04;;;;;;;9.77;5.13;;;;;;;0.71;100.00;98477.19;6192425;23;20013;-94
2023/03/08 00:12:30;;;;;;;8.30;5.35;;;;;;;0.68;100.00;98473.97;6193188;23;20005;-96
2023/03/08 00:14:55;;;;;;;10.77;6.68;;;;;;;0.63;100.00;98464.03;6192578;23;20019;-96
2023/03/08 00:17:25;;;;;;;10.20;6.18;;;;;;;0.60;100.00;98459.13;6192787;23;19996;-95
2023/03/08 00:19:51;;;;;;;8.25;5.32;;;;;;;0.68;100.00;98457.00;6192602;23;20012;-95
2023/03/08 00:22:17;;;;;;;10.50;6.13;;;;;;;0.66;100.00;98456.28;6192511;23;20012;-96
2023/03/08 00:27:26;;;;;;;6.70;5.32;;;;;;;0.75;100.00;98455.81;6191468;23;20092;-96
2023/03/08 00:29:51;;;;;;;9.27;5.55;;;;;;;0.74;100.00;98440.69;6217329;23;20000;-96
2023/03/08 00:32:17;;;;;;;9.80;6.20;;;;;;;0.74;100.00;98435.59;6192446;23;20005;-96
2023/03/08 00:34:45;;;;;;;8.43;6.18;;;;;;;0.82;100.00;98441.91;6192459;23;20005;-96
2023/03/08 00:37:11;;;;;;;8.43;5.70;;;;;;;0.74;100.00;98428.78;6193140;23;19997;-95
2023/03/08 00:39:37;;;;;;;9.27;5.82;;;;;;;0.87;100.00;98451.03;6193482;23;20427;-96
2023/03/08 00:42:03;;;;;;;11.02;5.80;;;;;;;0.85;100.00;98418.09;6193558;23;20060;-95
2023/03/08 00:44:29;;;;;;;8.00;5.95;;;;;;;0.81;100.00;98404.75;6192717;23;20004;-96
2023/03/08 00:46:54;;;;;;;8.63;6.32;;;;;;;0.73;100.00;98406.84;6193026;23;20473;-96
2023/03/08 00:49:21;;;;;;;13.15;6.55;;;;;;;0.72;100.00;98401.84;6192155;23;20012;-94
2023/03/08 00:51:47;;;;;;;11.40;6.75;;;;;;;0.82;100.00;98397.94;6192804;23;20416;-96
2023/03/08 00:54:13;;;;;;;12.15;6.90;;;;;;;0.76;100.00;98388.91;6192439;23;20001;-95
2023/03/08 00:56:38;;;;;;;13.90;7.45;;;;;;;1.05;100.00;98394.25;6193157;23;19996;-96
2023/03/08 00:59:04;;;;;;;11.25;7.03;;;;;;;0.85;100.00;98387.63;6191559;23;20509;-95
2023/03/08 01:01:29;;;;;;;9.95;6.68;;;;;;;0.79;100.00;98388.75;6191484;23;20011;-94
2023/03/08 01:03:55;;;;;;;15.25;7.90;;;;;;;0.98;100.00;98419.13;6191168;23;20020;-94
2023/03/08 01:06:21;;;;;;;13.70;7.97;;;;;;;0.91;100.00;98409.38;6190885;23;20009;-95
2023/03/08 01:08:46;;;;;;;12.95;7.72;;;;;;;0.80;100.00;98389.56;6191459;23;20336;-94
2023/03/08 01:11:21;;;;;;;13.23;7.35;;;;;;;0.74;100.00;98383.09;6191387;23;20009;-94
2023/03/08 01:13:48;;;;;;;12.48;7.60;;;;;;;0.90;100.00;98420.41;6191780;23;20071;-94
2023/03/08 01:16:16;;;;;;;11.70;7.38;;;;;;;0.88;100.00;98391.72;6191276;23;19996;-96
2023/03/08 01:18:42;;;;;;;16.20;7.93;;;;;;;0.87;100.00;98405.31;6191451;23;20017;-96
2023/03/08 01:21:09;;;;;;;12.52;7.88;;;;;;;0.72;100.00;98384.06;6191579;23;20005;-96
2023/03/08 01:23:35;;;;;;;10.85;7.55;;;;;;;0.83;98.13;98371.66;6191743;23;20008;-96
2023/03/08 01:26:06;;;;;;;12.82;7.88;;;;;;;0.85;97.48;98377.47;6192926;23;20011;-96
2023/03/08 01:28:35;;;;;;;11.60;7.72;;;;;;;0.96;96.23;98395.53;6192513;23;20008;-96
2023/03/08 01:31:11;;;;;;;14.68;8.45;;;;;;;0.90;94.35;98374.69;6192140;23;20008;-96
2023/03/08 01:33:39;;;;;;;13.88;8.02;;;;;;;0.79;95.05;98355.75;6191546;23;20032;-96
2023/03/08 01:36:07;;;;;;;11.95;7.75;;;;;;;0.81;94.17;98346.34;6191836;23;20000;-96
2023/03/08 01:38:33;;;;;;;10.20;7.78;;;;;;;0.75;93.17;98335.66;6192009;23;20005;-94
2023/03/08 01:41:00;;;;;;;11.07;7.53;;;;;;;0.65;92.09;98330.22;6193763;23;20009;-96
2023/03/08 01:43:31;;;;;;;13.30;7.57;;;;;;;0.70;91.08;98323.19;6192020;23;20379;-96
2023/03/08 01:46:13;;;;;;;11.10;8.35;;;;;;;0.87;91.37;98339.31;6191840;23;20005;-96
2023/03/08 01:48:42;;;;;;;;;;;;;;;1.01;92.40;98357.19;6193020;23;20431;-96
2023/03/08 01:51:16;;;;;;;14.65;8.48;;;;;;;0.90;92.73;98334.06;6192037;23;19908;-96
2023/03/08 01:53:42;;;;;;;14.48;8.55;;;;;;;0.68;94.55;98293.72;6191724;23;20005;-95
2023/03/08 01:56:10;;;;;;;13.80;8.93;;;;;;;0.69;93.89;98303.00;6191238;23;20087;-96
2023/03/08 01:58:39;;;;;;;15.13;9.68;;;;;;;0.63;95.41;98297.34;6191366;23;20005;-96
2023/03/08 02:01:05;;;;;;;16.23;9.65;;;;;;;0.42;97.93;98296.69;6192125;23;20005;-96
2023/03/08 02:03:30;;;;;;;17.90;9.95;;;;;;;0.46;98.69;98299.88;6191513;23;20031;-95
2023/03/08 02:05:56;;;;;;;21.13;10.35;;;;;;;0.49;99.92;98303.97;6191332;23;20402;-96
2023/03/08 02:08:22;;;;;;;16.38;10.82;;;;;;;0.48;100.00;98304.91;6216656;23;20004;-96
2023/03/08 02:10:49;;;;;;;21.65;10.32;;;;;;;0.46;100.00;98329.53;6191324;23;20440;-96
2023/03/08 02:13:15;;;;;;;17.27;10.40;;;;;;;0.06;100.00;98275.69;6216567;23;20424;-96
2023/03/08 02:15:41;;;;;;;18.83;11.02;;;;;;;0.01;100.00;98288.59;6216962;23;20004;-93
2023/03/08 02:18:06;;;;;;;19.70;12.32;;;;;;;-0.11;100.00;98264.66;6216891;23;20023;-96
2023/03/08 02:20:37;;;;;;;19.35;12.00;;;;;;;-0.16;100.00;98236.19;6191558;23;20016;-96
2023/03/08 02:23:16;;;;;;;19.08;11.85;;;;;;;-0.12;100.00;98227.53;6216620;23;20084;-96
2023/03/08 02:26:03;;;;;;;23.20;12.35;;;;;;;-0.16;100.00;98235.38;6191668;23;20352;-96
2023/03/08 02:28:31;;;;;;;23.83;13.70;;;;;;;-0.39;100.00;98213.66;6217383;23;20032;-96
2023/03/08 02:30:56;;;;;;;22.17;13.43;;;;;;;-0.34;100.00;98216.78;6217206;23;20111;-96
2023/03/08 02:33:25;;;;;;;24.75;14.07;;;;;;;-0.23;100.00;98204.41;6192345;23;20009;-96
2023/03/08 02:35:51;;;;;;;25.52;13.80;;;;;;;-0.30;100.00;98213.22;6217030;23;20015;-95
2023/03/08 02:38:24;;;;;;;26.08;15.52;;;;;;;-0.55;100.00;98181.47;6191940;23;19996;-96
2023/03/08 02:40:52;;;;;;;25.65;15.43;;;;;;;-0.43;100.00;98193.53;6216431;23;20039;-95
2023/03/08 02:43:18;;;;;;;29.15;15.80;;;;;;;-0.62;100.00;98159.84;6216842;23;20001;-96
2023/03/08 02:45:47;;;;;;;24.85;14.90;;;;;;;-0.65;100.00;98157.47;6216755;23;20005;-96
2023/03/08 02:48:14;;;;;;;27.38;13.95;;;;;;;-0.76;100.00;98147.03;6191710;23;20011;-96
2023/03/08 02:50:47;;;;;;;31.10;15.40;;;;;;;-0.74;100.00;98138.47;6217175;23;20005;-96
2023/03/08 02:53:13;;;;;;;32.97;17.33;;;;;;;-0.83;100.00;98138.91;6191816;23;20432;-95
2023/03/08 02:55:39;;;;;;;29.00;14.93;;;;;;;-0.76;100.00;98149.56;6216447;23;20075;-94
2023/03/08 02:58:07;;;;;;;25.08;13.25;;;;;;;-0.89;100.00;98150.16;6191524;23;20004;-96
2023/03/08 03:00:32;;;;;;;25.75;13.77;;;;;;;-0.29;100.00;98138.84;6217088;23;20012;-95
2023/03/08 03:03:00;;;;;;;26.08;13.52;;;;;;;-0.34;100.00;98143.28;6217619;23;20012;-96
2023/03/08 03:05:26;;;;;;;24.10;14.13;;;;;;;-0.43;100.00;98135.25;6195592;23;20035;-96
2023/03/08 03:08:06;;;;;;;33.42;15.23;;;;;;;-0.33;100.00;98133.09;6199480;23;20001;-95
2023/03/08 03:10:52;;;;;;;27.42;14.77;;;;;;;-0.27;100.00;98127.72;6161578;23;20021;-96
2023/03/08 05:48:22;;;;;;;36.60;19.15;;;;;;;-0.29;100.00;97963.94;6181238;23;20007;-96
2023/03/08 06:02:46;;;;;;;27.15;17.50;;;;;;;-0.08;100.00;97974.63;6211304;22;19993;-96
2023/03/08 07:20:31;;;;;;;27.50;16.63;;;;;;;0.40;100.00;97897.56;6181844;22;20018;-95
2023/03/08 08:16:33;;;;;;;20.70;12.52;;;;;;;0.48;100.00;97896.31;6226316;22;20000;-96
2023/03/08 09:27:42;;;;;;;11.35;7.97;;;;;;;1.88;99.81;97894.66;6184424;23;20023;31
2023/03/08 09:30:15;;;;;;;12.45;8.68;;;;;;;1.54;100.00;97850.19;6129046;23;20025;-94
2023/03/08 09:35:41;;;;;;;10.18;7.32;;;;;;;1.52;100.00;97859.63;6217443;22;20024;-95
2023/03/08 09:38:06;;;;;;;9.95;7.22;;;;;;;1.28;100.00;97865.31;6261456;22;20004;-94
2023/03/08 09:40:44;;;;;;;10.02;7.32;;;;;;;1.19;100.00;97893.78;6244934;23;20030;-96
2023/03/08 09:43:20;;;;;;;9.50;7.13;;;;;;;1.07;100.00;97871.66;6244991;23;20039;-95
2023/03/08 15:30:26;;;;;;;5.63;4.50;;;;;;;2.98;100.00;97713.41;6200498;22;20025;-96
2023/03/08 15:33:21;;;;;;;;;;;;;;;;;;;;;
2023/03/08 15:35:48;;;;;;;6.30;4.47;;;;;;;2.85;100.00;97681.25;6187700;23;20056;-95
2023/03/08 15:38:16;;;;;;;8.98;4.63;;;;;;;2.89;100.00;97675.84;6163714;23;20029;-95
2023/03/08 15:40:43;;;;;;;6.03;4.97;;;;;;;2.67;100.00;97707.09;6160021;23;20009;-95
2023/03/08 15:43:09;;;;;;;5.47;4.32;;;;;;;2.69;100.00;97689.16;6159307;23;20012;-95
2023/03/08 15:45:36;;;;;;;5.57;4.65;;;;;;;2.82;100.00;97679.72;6159229;23;20029;-95
2023/03/08 15:48:07;;;;;;;6.57;4.93;;;;;;;2.71;100.00;97661.84;6161256;23;20425;-95
2023/03/08 15:50:36;;;;;;;11.57;5.78;;;;;;;2.92;99.06;97655.22;6161034;23;20088;-94
2023/03/08 15:53:01;;;;;;;10.25;5.97;;;;;;;3.42;100.00;97653.34;6161713;23;20083;-95
2023/03/08 15:55:28;;;;;;;7.00;5.00;;;;;;;3.04;97.97;97660.38;6161054;23;20040;-96
2023/03/08 15:57:54;;;;;;;15.25;7.03;;;;;;;3.29;97.17;97678.13;6161912;23;20001;-94
2023/03/08 16:00:21;;;;;;;9.23;5.30;;;;;;;3.52;98.30;97688.38;6159748;23;20463;-94
2023/03/08 16:02:47;;;;;;;7.18;4.85;;;;;;;3.45;96.97;97705.84;6160048;23;20014;-95
2023/03/08 16:05:14;;;;;;;6.07;4.80;;;;;;;3.48;96.77;97717.56;6160878;23;20057;-94
2023/03/08 16:07:40;;;;;;;5.95;4.85;;;;;;;3.26;95.35;97693.59;6161083;23;20012;-94
2023/03/08 16:10:09;;;;;;;6.95;4.70;;;;;;;2.83;97.24;97689.00;6160736;23;20444;-93
2023/03/08 16:12:35;;;;;;;8.55;5.68;;;;;;;2.99;96.55;97720.13;6161532;23;20063;-95
2023/03/08 16:15:00;;;;;;;6.88;5.20;;;;;;;2.80;97.36;97707.03;6160832;23;20001;-95
2023/03/08 16:17:52;;;;;;;7.10;4.65;;;;;;;2.76;97.22;97700.56;6163241;23;19997;-96
2023/03/08 16:20:19;;;;;;;6.07;4.60;;;;;;;2.97;97.71;97699.03;6159203;23;20080;-95
2023/03/08 16:23:16;;;;;;;6.20;4.88;;;;;;;3.06;97.41;97722.25;6176238;23;20064;-96
2023/03/08 16:25:57;;;;;;;6.20;4.82;;;;;;;3.28;96.02;97683.31;6182421;23;20013;-95
2023/03/08 16:28:22;;;;;;;7.00;5.40;;;;;;;3.31;95.28;97711.13;6157431;23;20019;-93
2023/03/08 16:30:47;;;;;;;5.05;4.20;;;;;;;3.09;94.58;97676.16;6158173;23;20087;-95
2023/03/08 16:33:13;;;;;;;4.72;4.07;;;;;;;3.13;95.53;97691.13;6156525;23;20016;-94
2023/03/08 16:35:39;;;;;;;5.88;4.15;;;;;;;2.99;96.12;97669.16;6157072;23;20424;-93
2023/03/08 16:38:04;;;;;;;5.13;4.18;;;;;;;3.05;96.03;97675.56;6157241;23;20013;-94
2023/03/08 16:40:31;;;;;;;4.43;3.90;;;;;;;3.22;93.58;97693.03;6157302;23;20009;-94
2023/03/08 16:42:57;;;;;;;4.57;4.03;;;;;;;3.07;94.34;97696.63;6157282;23;20005;-93
2023/03/08 16:45:22;;;;;;;7.43;4.32;;;;;;;3.08;93.83;97700.03;6157239;23;20005;-93
2023/03/08 16:47:48;;;;;;;4.03;3.35;;;;;;;3.15;93.80;97742.00;6156428;23;20001;-94
2023/03/08 16:50:13;;;;;;;4.07;3.60;;;;;;;3.16;93.77;97731.69;6156881;23;20030;-94
2023/03/08 16:52:38;;;;;;;4.60;4.07;;;;;;;2.66;95.23;97704.63;6157282;23;20047;-92
2023/03/08 16:55:05;;;;;;;4.40;4.00;;;;;;;3.00;94.31;97716.66;6157575;23;20424;-93
2023/03/08 16:57:32;;;;;;;4.05;3.65;;;;;;;2.76;95.08;97713.28;6155555;23;20024;-93
2023/03/08 16:59:58;;;;;;;4.50;4.10;;;;;;;2.71;95.67;97695.78;6156734;23;20092;-92
2023/03/08 17:02:23;;;;;;;4.78;3.95;;;;;;;2.74;95.44;97713.38;6155731;23;20100;-92
2023/03/08 17:04:49;;;;;;;6.63;4.13;;;;;;;2.61;97.14;97706.69;6156051;23;20503;-92
2023/03/08 17:07:15;;;;;;;5.22;3.95;;;;;;;2.86;96.97;97716.81;6156230;23;20310;-93
2023/03/08 17:09:41;;;;;;;6.43;4.13;;;;;;;2.54;97.10;97689.28;6158575;23;20009;-93
2023/03/08 17:12:08;;;;;;;5.03;4.35;;;;;;;2.77;97.26;97704.72;6155347;23;20436;-94
2023/03/08 17:14:35;;;;;;;4.65;4.07;;;;;;;2.63;99.31;97684.47;6155245;23;20396;-94
2023/03/08 17:17:01;;;;;;;4.57;3.63;;;;;;;4.10;90.07;97703.66;6155210;23;20038;-93
2023/03/08 17:19:26;;;;;;;5.75;4.65;;;;;;;4.20;88.77;97730.16;6158183;23;20447;-93
2023/03/08 17:22:00;;;;;;;4.35;3.83;;;;;;;3.76;85.56;97698.53;6171770;22;22293;-95
2023/03/08 17:24:26;;;;;;;4.53;3.92;;;;;;;3.93;84.88;97693.00;6217405;23;20005;-94
2023/03/08 17:44:54;;;;;;;5.43;4.85;;;;;;;4.07;84.23;97694.50;6220825;23;20019;-94
2023/03/08 17:47:20;;;;;;;5.25;4.32;;;;;;;3.64;84.50;97697.69;6193237;23;20064;-94
2023/03/08 17:50:33;;;;;;;8.43;5.00;;;;;;;4.02;84.82;97694.03;6195754;23;20031;-95
2023/03/08 17:52:34;;;;;;;5.68;4.47;;;;;;;4.02;82.01;97694.03;6195153;23;20443;-92
2023/03/08 17:55:00;;;;;;;4.72;4.22;;;;;;;4.00;82.43;97706.09;6187454;23;20008;-95
2023/03/08 17:57:25;;;;;;;5.00;4.40;;;;;;;4.05;83.05;97729.56;6213095;23;20431;-94
2023/03/08 17:59:52;;;;;;;4.97;3.90;;;;;;;4.19;83.18;97723.41;6188989;23;20004;-94
2023/03/08 18:02:19;;;;;;;5.50;4.40;;;;;;;3.93;83.52;97722.81;6187304;23;20239;-94
2023/03/08 18:04:46;;;;;;;5.35;4.68;;;;;;;3.94;83.91;97739.72;6187280;23;20011;-95
2023/03/08 18:07:15;;;;;;;5.15;4.18;;;;;;;3.88;83.92;97723.13;6213474;23;20004;-93
2023/03/08 18:09:46;;;;;;;9.38;6.20;;;;;;;3.94;84.23;97724.41;6189778;23;20009;-95
2023/03/08 18:12:15;;;;;;;6.97;5.97;;;;;;;3.73;83.33;97699.56;6190093;23;20431;-94
2023/03/08 18:14:41;;;;;;;6.93;5.18;;;;;;;3.68;83.62;97719.47;6188792;23;20008;-93
2023/03/08 18:17:07;;;;;;;6.55;5.40;;;;;;;3.96;86.31;97730.22;6187537;23;20122;-94
2023/03/08 18:19:33;;;;;;;5.43;4.90;;;;;;;3.70;85.64;97715.06;6183800;23;20004;-94
2023/03/08 18:21:58;;;;;;;13.07;5.55;;;;;;;3.65;86.43;97701.84;6188694;23;20080;-95
2023/03/08 18:24:26;;;;;;;5.68;4.57;;;;;;;3.50;87.38;97690.22;6185123;23;20011;-96
2023/03/08 18:26:52;;;;;;;5.28;4.53;;;;;;;3.64;86.99;97716.34;6211250;23;20039;-95
2023/03/08 18:29:20;;;;;;;7.70;5.22;;;;;;;3.53;86.52;97702.75;6186302;23;20000;-96
2023/03/08 18:31:45;;;;;;;6.97;5.57;;;;;;;3.67;86.45;97722.16;6191472;23;20008;-94
2023/03/08 18:34:14;;;;;;;5.82;4.93;;;;;;;3.61;86.04;97713.22;6190550;23;20008;-96
2023/03/08 18:36:40;;;;;;;6.13;5.35;;;;;;;3.35;87.07;97698.06;6188263;23;20016;-96
2023/03/08 18:48:28;;;;;;;;;;;;;;;;;;;;;
2023/03/08 18:50:59;;;;;;;8.43;6.18;;;;;;;3.70;87.25;97701.50;6169595;23;20380;-95
2023/03/08 18:53:25;;;;;;;10.02;6.57;;;;;;;3.75;86.19;97733.41;6156290;23;20329;-95
2023/03/08 18:55:56;;;;;;;7.43;5.63;;;;;;;3.63;84.39;97712.19;6156801;23;20006;-95
2023/03/08 18:58:24;;;;;;;9.60;6.53;;;;;;;3.80;84.80;97722.88;6157109;23;20001;-96
2023/03/08 19:00:52;;;;;;;9.15;6.55;;;;;;;3.88;83.94;97740.16;6158387;23;20001;-94
2023/03/08 19:03:17;;;;;;;7.65;5.97;;;;;;;3.69;84.30;97726.22;6156374;23;20009;-95
2023/03/08 19:06:14;;;;;;;8.68;6.93;;;;;;;3.85;82.74;97711.41;6157712;23;20016;-96
2023/03/08 19:08:39;;;;;;;8.70;6.45;;;;;;;3.77;83.74;97721.34;6156118;23;20013;-95
2023/03/08 19:11:14;;;;;;;8.60;6.65;;;;;;;2.23;90.19;97718.56;6155912;23;20041;-95
2023/03/08 19:13:41;;;;;;;10.68;7.32;;;;;;;1.60;100.00;97745.56;6156400;23;20460;-95
2023/03/08 19:16:20;;;;;;;9.48;6.75;;;;;;;1.55;100.00;97712.00;6155540;23;20384;-94
2023/03/08 19:18:47;;;;;;;8.32;5.97;;;;;;;1.39;100.00;97757.94;6155946;23;20009;-94
2023/03/08 19:21:21;;;;;;;7.57;5.72;;;;;;;1.41;100.00;97730.66;6155701;23;20059;-94
2023/03/08 19:23:47;;;;;;;7.30;5.50;;;;;;;1.35;100.00;97748.03;6155521;23;20419;-94
2023/03/08 19:29:21;;;;;;;8.45;6.35;;;;;;;1.32;100.00;97753.31;6183424;23;20012;-95
2023/03/08 19:31:58;;;;;;;8.25;6.35;;;;;;;1.52;100.00;97757.97;6179058;23;20015;-94
2023/03/08 19:34:29;;;;;;;8.10;6.80;;;;;;;1.43;100.00;97758.53;6155241;23;20031;-93
2023/03/08 19:36:55;;;;;;;8.23;6.70;;;;;;;1.34;100.00;97769.28;6155458;23;20036;-93
2023/03/08 19:39:24;;;;;;;8.65;6.32;;;;;;;1.62;100.00;97784.41;6155141;23;20001;-94
2023/03/08 19:41:52;;;;;;;7.25;5.65;;;;;;;1.37;100.00;97741.94;6155670;23;20444;-94
2023/03/08 19:44:18;;;;;;;7.82;6.03;;;;;;;1.27;100.00;97744.25;6157084;23;20008;-95
2023/03/08 19:46:44;;;;;;;10.82;7.32;;;;;;;1.51;100.00;97766.47;6157579;23;20013;-94
2023/03/08 19:49:13;;;;;;;8.95;6.47;;;;;;;1.51;100.00;97746.16;6157953;23;20008;-93
2023/03/08 19:51:38;;;;;;;8.75;6.15;;;;;;;1.33;100.00;97757.50;6155285;23;20023;-93
2023/03/08 19:54:05;;;;;;;7.43;5.97;;;;;;;0.99;100.00;97745.16;6155330;23;20460;-95
2023/03/08 19:56:31;;;;;;;7.45;5.82;;;;;;;1.12;100.00;97747.72;6155612;23;20005;-94
2023/03/08 19:58:58;;;;;;;8.43;6.45;;;;;;;0.95;100.00;97760.66;6155916;23;20440;-94
2023/03/08 20:01:24;;;;;;;7.07;5.50;;;;;;;1.20;100.00;97773.50;6159894;23;20100;-93
2023/03/08 20:03:50;;;;;;;7.88;5.85;;;;;;;1.31;100.00;97795.69;6160172;23;20005;-94
2023/03/08 20:06:31;;;;;;;7.88;5.85;;;;;;;1.54;100.00;97837.47;6160051;23;20042;-96
2023/03/08 20:08:57;;;;;;;6.85;5.22;;;;;;;1.29;100.00;97828.00;6160238;23;20096;-94
2023/03/08 20:11:23;;;;;;;7.40;5.70;;;;;;;1.27;100.00;97833.19;6159402;23;20005;-94
2023/03/08 20:13:49;;;;;;;7.35;5.60;;;;;;;1.30;100.00;97844.09;6160010;23;20064;-95
2023/03/08 20:16:15;;;;;;;9.25;6.13;;;;;;;1.42;100.00;97840.78;6160191;23;20009;-96
2023/03/08 20:18:40;;;;;;;9.02;6.60;;;;;;;1.27;100.00;97815.41;6159856;23;20001;-93
2023/03/08 20:21:06;;;;;;;8.95;5.90;;;;;;;1.15;100.00;97816.16;6160535;23;20080;-94
2023/03/08 20:23:31;;;;;;;8.73;5.25;;;;;;;1.21;100.00;97818.31;6159622;23;20078;-95
2023/03/08 20:26:01;;;;;;;8.25;6.28;;;;;;;1.37;100.00;97835.19;6160912;23;20001;-95
2023/03/08 20:28:26;;;;;;;8.57;6.47;;;;;;;1.25;100.00;97832.47;6162159;23;20005;-95
2023/03/08 20:30:52;;;;;;;8.02;5.90;;;;;;;1.06;100.00;97796.41;6161623;23;20005;-95
2023/03/08 20:33:18;;;;;;;7.13;5.68;;;;;;;1.28;100.00;97821.28;6159857;23;20169;-93
2023/03/08 20:35:45;;;;;;;7.70;5.82;;;;;;;1.14;100.00;97799.28;6159375;23;20516;-94
2023/03/08 20:38:11;;;;;;;8.30;6.28;;;;;;;1.14;100.00;97794.19;6159082;23;20009;-94
2023/03/08 20:40:37;;;;;;;7.03;5.15;;;;;;;1.14;100.00;97801.81;6159779;23;20416;-94
2023/03/08 20:43:02;;;;;;;7.32;5.22;;;;;;;1.05;100.00;97790.50;6159327;23;20091;-93
2023/03/08 20:45:28;;;;;;;7.50;5.13;;;;;;;1.14;100.00;97829.75;6159499;23;20095;-94
2023/03/08 20:47:56;;;;;;;9.10;6.00;;;;;;;1.37;100.00;97845.34;6160403;23;20016;-95
2023/03/08 20:50:25;;;;;;;6.85;5.03;;;;;;;1.69;100.00;97826.34;6160082;23;20005;-95
2023/03/08 20:52:51;;;;;;;6.82;5.63;;;;;;;1.66;100.00;97821.47;6160069;23;20005;-94
2023/03/08 20:55:17;;;;;;;6.85;5.50;;;;;;;1.62;100.00;97831.91;6159425;23;20048;-93
2023/03/08 20:57:43;;;;;;;5.90;4.80;;;;;;;1.59;100.00;97819.41;6159811;23;20009;-94
2023/03/08 21:00:12;;;;;;;7.95;5.80;;;;;;;1.46;100.00;97840.50;6159478;23;19997;-96
2023/03/08 21:02:38;;;;;;;7.65;5.70;;;;;;;1.55;100.00;97861.16;6159699;23;20011;-94
2023/03/08 21:05:06;;;;;;;9.30;6.68;;;;;;;1.53;100.00;97866.34;6159441;23;20005;-94
2023/03/08 21:07:32;;;;;;;8.45;6.40;;;;;;;1.49;100.00;97885.25;6159855;23;20001;-94
2023/03/08 21:09:57;;;;;;;9.38;6.28;;;;;;;1.45;100.00;97873.63;6160418;23;20008;-94
2023/03/08 21:12:23;;;;;;;14.60;8.73;;;;;;;1.64;100.00;97873.31;6160556;23;20348;-94
2023/03/08 21:14:52;;;;;;;13.02;8.52;;;;;;;1.79;100.00;97889.34;6160170;23;20395;-94
2023/03/08 21:17:20;;;;;;;9.65;6.82;;;;;;;1.61;100.00;97902.28;6159606;23;20001;-94
2023/03/08 21:20:00;;;;;;;14.07;8.40;;;;;;;1.53;100.00;97878.22;6162441;23;20015;-95
2023/03/08 21:22:30;;;;;;;12.23;7.18;;;;;;;1.37;100.00;97875.84;6168213;23;20009;-96
2023/03/08 21:24:56;;;;;;;9.48;6.72;;;;;;;1.40;100.00;97896.78;6159533;23;20017;-95
2023/03/08 21:27:21;;;;;;;12.23;7.72;;;;;;;1.42;100.00;97884.00;6159710;23;20059;-94
2023/03/08 21:29:46;;;;;;;11.38;7.88;;;;;;;1.40;100.00;97895.97;6159481;23;19997;-94
2023/03/08 21:32:12;;;;;;;11.65;8.77;;;;;;;1.37;100.00;97881.72;6160071;23;20040;-94
2023/03/08 21:34:38;;;;;;;11.18;7.65;;;;;;;1.46;100.00;97898.97;6160178;23;20005;-95
2023/03/08 21:37:06;;;;;;;13.00;8.88;;;;;;;1.35;100.00;97895.44;6160585;23;20012;-94
2023/03/08 21:39:32;;;;;;;12.95;8.40;;;;;;;1.19;100.00;97877.75;6159950;23;20000;-93
2023/03/08 21:41:58;;;;;;;10.35;7.60;;;;;;;1.28;100.00;97898.34;6160114;23;20003;-92
2023/03/08 21:44:24;;;;;;;11.13;8.18;;;;;;;1.27;100.00;97886.56;6160535;23;20009;-95
2023/03/08 21:46:50;;;;;;;12.98;8.98;;;;;;;1.31;100.00;97887.16;6160649;23;20009;-95
2023/03/08 21:49:25;;;;;;;13.50;9.38;;;;;;;1.39;100.00;97914.66;6160477;23;20011;-92
2023/03/08 21:51:55;;;;;;;14.13;9.00;;;;;;;1.39;100.00;97899.41;6160003;23;20327;-95
2023/03/08 21:54:21;;;;;;;13.32;9.63;;;;;;;1.16;100.00;97894.00;6160658;23;20020;-94
2023/03/08 21:56:47;;;;;;;20.50;11.93;;;;;;;1.33;100.00;97910.75;6159761;23;20435;-95
2023/03/08 21:59:13;;;;;;;13.95;9.65;;;;;;;1.23;100.00;97880.00;6161174;23;20005;-95
2023/03/08 22:01:48;;;;;;;;;;;;;;;;;;;;;
2023/03/08 22:04:17;;;;;;;13.20;9.55;;;;;;;1.22;100.00;97893.63;6187080;23;20091;-94
2023/03/08 22:06:42;;;;;;;13.02;9.70;;;;;;;1.16;100.00;97881.28;6161306;23;20088;-95
2023/03/08 22:09:09;;;;;;;13.32;9.52;;;;;;;1.33;100.00;97904.88;6160337;23;20005;-95
2023/03/08 22:11:35;;;;;;;16.58;10.10;;;;;;;1.34;100.00;97893.78;6159468;23;20036;-95
2023/03/08 22:14:00;;;;;;;15.65;9.98;;;;;;;1.06;100.00;97872.59;6160432;23;20324;-95
2023/03/08 22:16:28;;;;;;;16.73;11.10;;;;;;;1.47;100.00;97892.16;6160497;23;20005;-95
2023/03/08 22:18:56;;;;;;;13.60;10.30;;;;;;;1.55;100.00;97858.63;6162645;23;20024;-95
2023/03/08 22:21:22;;;;;;;14.38;10.40;;;;;;;1.62;100.00;97881.03;6161019;23;20021;-91
2023/03/08 22:23:51;;;;;;;14.85;10.40;;;;;;;1.48;100.00;97873.44;6159140;23;20048;-94
2023/03/08 22:26:17;;;;;;;15.85;10.73;;;;;;;1.55;100.00;97868.78;6159568;23;20324;-95
2023/03/08 22:28:43;;;;;;;16.20;11.45;;;;;;;1.53;100.00;97896.03;6159998;23;20096;-95
2023/03/08 22:31:15;;;;;;;15.10;10.88;;;;;;;1.67;100.00;97898.53;6159883;23;20301;-95
2023/03/08 22:33:40;;;;;;;;;;;;;;;1.78;100.00;97920.75;6160423;23;20008;-93
2023/03/08 22:36:09;;;;;;;19.38;11.27;;;;;;;1.66;100.00;97923.16;6159454;23;19935;-95
2023/03/08 22:38:35;;;;;;;15.95;12.00;;;;;;;1.75;100.00;97920.94;6159105;23;20008;-94
2023/03/08 22:41:00;;;;;;;15.90;10.38;;;;;;;1.42;100.00;97894.97;6159684;23;20013;-95
2023/03/08 22:43:26;;;;;;;15.57;10.95;;;;;;;1.48;100.00;97909.81;6159088;23;20416;-95
2023/03/08 22:45:52;;;;;;;13.68;9.70;;;;;;;1.46;100.00;97910.84;6159204;23;20013;-95
2023/03/08 22:48:17;;;;;;;14.20;9.88;;;;;;;1.60;100.00;97948.94;6159102;23;20432;-94
2023/03/08 22:50:43;;;;;;;14.90;10.50;;;;;;;1.42;100.00;97920.38;6159376;23;20004;-94
2023/03/08 22:53:08;;;;;;;13.55;9.82;;;;;;;1.54;100.00;97953.56;6159084;23;20427;-95
2023/03/08 22:55:34;;;;;;;14.65;10.73;;;;;;;1.62;100.00;97939.50;6159761;23;20450;-94
2023/03/08 23:00:37;;;;;;;14.63;10.57;;;;;;;1.51;100.00;97941.88;6159191;23;20326;-95
2023/03/08 23:03:02;;;;;;;17.67;11.90;;;;;;;1.76;100.00;97961.56;6158950;23;20005;-96
2023/03/08 23:05:28;;;;;;;18.35;11.85;;;;;;;1.61;100.00;97965.84;6159837;23;20005;-93
2023/03/08 23:07:53;;;;;;;18.55;12.40;;;;;;;1.40;100.00;97942.53;6159748;23;19993;-95
2023/03/08 23:10:20;;;;;;;19.92;12.23;;;;;;;1.43;100.00;97959.31;6159539;23;20005;-95
2023/03/08 23:12:46;;;;;;;19.05;12.35;;;;;;;1.27;100.00;97945.00;6159214;23;20075;-95
2023/03/08 23:15:11;;;;;;;24.60;13.77;;;;;;;1.47;100.00;97953.16;6159561;23;19989;-94
2023/03/08 23:17:37;;;;;;;19.05;12.73;;;;;;;1.49;100.00;97981.84;6159750;23;20095;-95
2023/03/08 23:20:02;;;;;;;18.13;11.73;;;;;;;1.37;100.00;97960.50;6159999;23;19989;-95
2023/03/08 23:22:28;;;;;;;19.52;12.93;;;;;;;1.08;100.00;97972.38;6159845;23;20017;-94
2023/03/08 23:24:53;;;;;;;19.85;13.32;;;;;;;1.30;100.00;97999.09;6159399;23;20019;-94
2023/03/08 23:27:19;;;;;;;18.25;12.20;;;;;;;1.17;100.00;97964.22;6159780;23;20081;-94
2023/03/08 23:29:44;;;;;;;18.88;12.63;;;;;;;1.32;100.00;97997.25;6159929;23;20080;-94
2023/03/08 23:32:10;;;;;;;19.73;12.63;;;;;;;1.35;100.00;97980.09;6159830;23;20458;-95
2023/03/08 23:34:35;;;;;;;19.33;12.50;;;;;;;1.08;100.00;97990.16;6159627;23;20013;-95
2023/03/08 23:37:03;;;;;;;20.73;13.60;;;;;;;1.13;100.00;97984.81;6159599;23;20001;-94
2023/03/08 23:39:32;;;;;;;20.33;13.05;;;;;;;1.33;100.00;98001.44;6159753;23;20057;-95
2023/03/08 23:41:58;;;;;;;19.30;12.65;;;;;;;1.04;100.00;97996.31;6158898;23;20005;-95
2023/03/08 23:44:24;;;;;;;21.17;12.40;;;;;;;1.17;100.00;98011.66;6158983;23;20023;-94
2023/03/08 23:46:52;;;;;;;20.80;12.82;;;;;;;3.09;93.39;98032.94;6159603;23;20040;-95
2023/03/08 23:49:18;;;;;;;21.73;13.07;;;;;;;2.78;92.64;98022.19;6159686;23;20001;-94
2023/03/08 23:51:43;;;;;;;21.30;13.10;;;;;;;2.84;92.45;98052.34;6160016;23;20012;-94
2023/03/08 23:54:10;;;;;;;20.13;12.55;;;;;;;2.48;93.80;98018.13;6160106;23;20009;-95
2023/03/08 23:56:37;;;;;;;19.30;11.82;;;;;;;2.75;94.07;98056.28;6160275;23;20009;-94
2023/03/08 23:59:10;;;;;;;21.58;13.55;;;;;;;2.65;93.64;98042.50;6160696;23;20008;-94
